sensor_id;sensor_type;location;lat;lon;timestamp;temperature;humidity
26537;DHT22;14204;51.262;5.488;2022-11-20T00:00:04;4.70;99.90
26537;DHT22;14204;51.262;5.488;2022-11-20T00:02:29;4.80;99.90
26537;DHT22;14204;51.262;5.488;2022-11-20T00:04:55;4.80;99.90
26537;DHT22;14204;51.262;5.488;2022-11-20T00:07:21;4.70;99.90
26537;DHT22;14204;51.262;5.488;2022-11-20T00:09:46;4.60;99.90
26537;DHT22;14204;51.262;5.488;2022-11-20T00:12:12;4.60;99.90
26537;DHT22;14204;51.262;5.488;2022-11-20T00:14:38;4.60;99.90
26537;DHT22;14204;51.262;5.488;2022-11-20T00:17:04;4.60;99.90
26537;DHT22;14204;51.262;5.488;2022-11-20T00:19:29;4.60;99.90
26537;DHT22;14204;51.262;5.488;2022-11-20T00:21:55;4.70;99.90
26537;DHT22;14204;51.262;5.488;2022-11-20T00:24:21;4.60;99.90
26537;DHT22;14204;51.262;5.488;2022-11-20T00:26:47;4.60;99.90
26537;DHT22;14204;51.262;5.488;2022-11-20T00:29:12;4.60;99.90
26537;DHT22;14204;51.262;5.488;2022-11-20T00:31:38;4.60;99.90
26537;DHT22;14204;51.262;5.488;2022-11-20T00:34:04;4.60;99.90
26537;DHT22;14204;51.262;5.488;2022-11-20T00:36:32;4.70;99.90
26537;DHT22;14204;51.262;5.488;2022-11-20T00:38:58;4.60;99.90
26537;DHT22;14204;51.262;5.488;2022-11-20T00:41:25;4.70;99.90
26537;DHT22;14204;51.262;5.488;2022-11-20T00:43:54;4.60;99.90
26537;DHT22;14204;51.262;5.488;2022-11-20T00:46:22;4.60;99.90
26537;DHT22;14204;51.262;5.488;2022-11-20T00:48:48;4.50;99.90
26537;DHT22;14204;51.262;5.488;2022-11-20T00:51:16;4.50;99.90
26537;DHT22;14204;51.262;5.488;2022-11-20T00:53:42;4.40;99.90
26537;DHT22;14204;51.262;5.488;2022-11-20T00:56:11;4.40;99.90
26537;DHT22;14204;51.262;5.488;2022-11-20T00:58:38;4.40;99.90
26537;DHT22;14204;51.262;5.488;2022-11-20T01:01:10;4.50;99.90
26537;DHT22;14204;51.262;5.488;2022-11-20T01:03:38;4.20;99.90
26537;DHT22;14204;51.262;5.488;2022-11-20T01:06:07;3.90;99.90
26537;DHT22;14204;51.262;5.488;2022-11-20T01:08:34;3.90;99.90
26537;DHT22;14204;51.262;5.488;2022-11-20T01:11:09;3.90;99.90
26537;DHT22;14204;51.262;5.488;2022-11-20T01:13:35;3.80;99.90
26537;DHT22;14204;51.262;5.488;2022-11-20T01:18:30;4.00;99.90
26537;DHT22;14204;51.262;5.488;2022-11-20T01:20:59;4.00;99.90
26537;DHT22;14204;51.262;5.488;2022-11-20T01:23:25;3.90;99.90
26537;DHT22;14204;51.262;5.488;2022-11-20T01:25:50;3.90;99.90
26537;DHT22;14204;51.262;5.488;2022-11-20T01:28:16;4.00;99.90
26537;DHT22;14204;51.262;5.488;2022-11-20T01:30:42;3.90;99.90
26537;DHT22;14204;51.262;5.488;2022-11-20T01:33:07;3.70;99.90
26537;DHT22;14204;51.262;5.488;2022-11-20T01:35:33;3.70;99.90
26537;DHT22;14204;51.262;5.488;2022-11-20T01:37:58;3.80;99.90
26537;DHT22;14204;51.262;5.488;2022-11-20T01:40:24;3.70;99.90
26537;DHT22;14204;51.262;5.488;2022-11-20T01:42:57;3.70;99.90
26537;DHT22;14204;51.262;5.488;2022-11-20T01:46:04;3.60;99.90
26537;DHT22;14204;51.262;5.488;2022-11-20T01:48:53;3.70;99.90
26537;DHT22;14204;51.262;5.488;2022-11-20T01:51:33;3.70;99.90
26537;DHT22;14204;51.262;5.488;2022-11-20T01:54:04;3.70;99.90
26537;DHT22;14204;51.262;5.488;2022-11-20T01:56:35;3.50;99.90
26537;DHT22;14204;51.262;5.488;2022-11-20T01:59:05;3.50;99.90
26537;DHT22;14204;51.262;5.488;2022-11-20T02:01:33;3.50;99.90
26537;DHT22;14204;51.262;5.488;2022-11-20T02:03:59;3.60;99.90
26537;DHT22;14204;51.262;5.488;2022-11-20T02:06:32;3.70;99.90
26537;DHT22;14204;51.262;5.488;2022-11-20T02:09:00;3.80;99.90
26537;DHT22;14204;51.262;5.488;2022-11-20T02:11:26;3.70;99.90
26537;DHT22;14204;51.262;5.488;2022-11-20T02:13:51;3.80;99.90
26537;DHT22;14204;51.262;5.488;2022-11-20T02:16:24;3.80;99.90
26537;DHT22;14204;51.262;5.488;2022-11-20T02:18:52;3.90;99.90
26537;DHT22;14204;51.262;5.488;2022-11-20T02:21:37;3.80;99.90
26537;DHT22;14204;51.262;5.488;2022-11-20T02:24:14;3.80;99.90
26537;DHT22;14204;51.262;5.488;2022-11-20T02:26:50;3.80;99.90
26537;DHT22;14204;51.262;5.488;2022-11-20T02:29:26;3.90;99.90
26537;DHT22;14204;51.262;5.488;2022-11-20T02:31:54;4.00;99.90
26537;DHT22;14204;51.262;5.488;2022-11-20T02:34:20;4.00;99.90
26537;DHT22;14204;51.262;5.488;2022-11-20T02:36:46;4.00;99.90
26537;DHT22;14204;51.262;5.488;2022-11-20T02:39:13;4.10;99.90
26537;DHT22;14204;51.262;5.488;2022-11-20T02:41:42;4.10;99.90
26537;DHT22;14204;51.262;5.488;2022-11-20T02:44:08;4.10;99.90
26537;DHT22;14204;51.262;5.488;2022-11-20T02:46:34;4.10;99.90
26537;DHT22;14204;51.262;5.488;2022-11-20T02:49:02;4.00;99.90
26537;DHT22;14204;51.262;5.488;2022-11-20T02:51:28;4.10;99.90
26537;DHT22;14204;51.262;5.488;2022-11-20T02:53:54;4.10;99.90
26537;DHT22;14204;51.262;5.488;2022-11-20T02:56:20;4.00;99.90
26537;DHT22;14204;51.262;5.488;2022-11-20T02:58:45;4.00;99.90
26537;DHT22;14204;51.262;5.488;2022-11-20T03:01:11;4.10;99.90
26537;DHT22;14204;51.262;5.488;2022-11-20T03:03:37;4.10;99.90
26537;DHT22;14204;51.262;5.488;2022-11-20T03:06:03;4.10;99.90
26537;DHT22;14204;51.262;5.488;2022-11-20T03:08:28;4.10;99.90
26537;DHT22;14204;51.262;5.488;2022-11-20T03:10:54;4.10;99.90
26537;DHT22;14204;51.262;5.488;2022-11-20T03:13:20;4.20;99.90
26537;DHT22;14204;51.262;5.488;2022-11-20T03:15:45;4.20;99.90
26537;DHT22;14204;51.262;5.488;2022-11-20T03:18:11;4.20;99.90
26537;DHT22;14204;51.262;5.488;2022-11-20T03:20:38;4.20;99.90
26537;DHT22;14204;51.262;5.488;2022-11-20T03:23:04;4.10;99.90
26537;DHT22;14204;51.262;5.488;2022-11-20T03:25:30;3.90;99.90
26537;DHT22;14204;51.262;5.488;2022-11-20T03:27:56;3.90;99.90
26537;DHT22;14204;51.262;5.488;2022-11-20T03:30:21;4.00;99.90
26537;DHT22;14204;51.262;5.488;2022-11-20T03:32:47;4.00;99.90
26537;DHT22;14204;51.262;5.488;2022-11-20T03:35:13;4.00;99.90
26537;DHT22;14204;51.262;5.488;2022-11-20T03:37:39;4.10;99.90
26537;DHT22;14204;51.262;5.488;2022-11-20T03:40:05;4.00;99.90
26537;DHT22;14204;51.262;5.488;2022-11-20T03:42:31;4.10;99.90
26537;DHT22;14204;51.262;5.488;2022-11-20T03:45:13;4.10;99.90
26537;DHT22;14204;51.262;5.488;2022-11-20T03:47:40;4.00;99.90
26537;DHT22;14204;51.262;5.488;2022-11-20T03:50:06;3.90;99.90
26537;DHT22;14204;51.262;5.488;2022-11-20T03:52:31;3.80;99.90
26537;DHT22;14204;51.262;5.488;2022-11-20T03:54:57;3.80;99.90
26537;DHT22;14204;51.262;5.488;2022-11-20T03:57:23;3.90;99.90
26537;DHT22;14204;51.262;5.488;2022-11-20T03:59:48;4.00;99.90
26537;DHT22;14204;51.262;5.488;2022-11-20T04:02:14;4.00;99.90
26537;DHT22;14204;51.262;5.488;2022-11-20T04:04:40;4.10;99.90
26537;DHT22;14204;51.262;5.488;2022-11-20T04:07:05;4.10;99.90
26537;DHT22;14204;51.262;5.488;2022-11-20T04:09:31;4.20;99.90
26537;DHT22;14204;51.262;5.488;2022-11-20T04:11:56;4.10;99.90
26537;DHT22;14204;51.262;5.488;2022-11-20T04:14:22;4.00;99.90
26537;DHT22;14204;51.262;5.488;2022-11-20T04:16:48;4.10;99.90
26537;DHT22;14204;51.262;5.488;2022-11-20T04:19:15;4.20;99.90
26537;DHT22;14204;51.262;5.488;2022-11-20T04:21:41;4.10;99.90
26537;DHT22;14204;51.262;5.488;2022-11-20T04:24:07;4.00;99.90
26537;DHT22;14204;51.262;5.488;2022-11-20T04:26:34;4.20;99.90
26537;DHT22;14204;51.262;5.488;2022-11-20T04:28:59;4.20;99.90
26537;DHT22;14204;51.262;5.488;2022-11-20T04:31:32;4.20;99.90
26537;DHT22;14204;51.262;5.488;2022-11-20T04:34:06;4.20;99.90
26537;DHT22;14204;51.262;5.488;2022-11-20T04:36:33;4.20;99.90
26537;DHT22;14204;51.262;5.488;2022-11-20T04:39:04;4.30;99.90
26537;DHT22;14204;51.262;5.488;2022-11-20T04:41:33;4.10;99.90
26537;DHT22;14204;51.262;5.488;2022-11-20T04:44:00;4.20;99.90
26537;DHT22;14204;51.262;5.488;2022-11-20T04:46:33;4.10;99.90
26537;DHT22;14204;51.262;5.488;2022-11-20T04:48:59;4.20;99.90
26537;DHT22;14204;51.262;5.488;2022-11-20T04:51:25;4.10;99.90
26537;DHT22;14204;51.262;5.488;2022-11-20T04:53:51;4.00;99.90
26537;DHT22;14204;51.262;5.488;2022-11-20T04:56:16;4.10;99.90
26537;DHT22;14204;51.262;5.488;2022-11-20T04:58:42;4.10;99.90
26537;DHT22;14204;51.262;5.488;2022-11-20T05:01:13;4.00;99.90
26537;DHT22;14204;51.262;5.488;2022-11-20T05:03:40;4.00;99.90
26537;DHT22;14204;51.262;5.488;2022-11-20T05:06:07;4.00;99.90
26537;DHT22;14204;51.262;5.488;2022-11-20T05:08:33;4.10;99.90
26537;DHT22;14204;51.262;5.488;2022-11-20T05:11:10;4.10;99.90
26537;DHT22;14204;51.262;5.488;2022-11-20T05:13:36;4.20;99.90
26537;DHT22;14204;51.262;5.488;2022-11-20T05:16:03;4.20;99.90
26537;DHT22;14204;51.262;5.488;2022-11-20T05:18:29;4.30;99.90
26537;DHT22;14204;51.262;5.488;2022-11-20T05:20:55;4.20;99.90
26537;DHT22;14204;51.262;5.488;2022-11-20T05:23:21;4.20;99.90
26537;DHT22;14204;51.262;5.488;2022-11-20T05:25:47;4.20;99.90
26537;DHT22;14204;51.262;5.488;2022-11-20T05:28:13;4.30;99.90
26537;DHT22;14204;51.262;5.488;2022-11-20T05:30:39;4.30;99.90
26537;DHT22;14204;51.262;5.488;2022-11-20T05:33:05;4.30;99.90
26537;DHT22;14204;51.262;5.488;2022-11-20T05:35:30;4.30;99.90
26537;DHT22;14204;51.262;5.488;2022-11-20T05:37:56;4.30;99.90
26537;DHT22;14204;51.262;5.488;2022-11-20T05:40:22;4.40;99.90
26537;DHT22;14204;51.262;5.488;2022-11-20T05:42:47;4.30;99.90
26537;DHT22;14204;51.262;5.488;2022-11-20T05:45:13;4.40;99.90
26537;DHT22;14204;51.262;5.488;2022-11-20T05:47:38;4.30;99.90
26537;DHT22;14204;51.262;5.488;2022-11-20T05:50:04;4.20;99.90
26537;DHT22;14204;51.262;5.488;2022-11-20T05:52:30;4.10;99.90
26537;DHT22;14204;51.262;5.488;2022-11-20T05:54:56;4.20;99.90
26537;DHT22;14204;51.262;5.488;2022-11-20T05:57:22;4.10;99.90
26537;DHT22;14204;51.262;5.488;2022-11-20T05:59:48;4.20;99.90
26537;DHT22;14204;51.262;5.488;2022-11-20T06:02:13;4.20;99.90
26537;DHT22;14204;51.262;5.488;2022-11-20T06:04:39;4.30;99.90
26537;DHT22;14204;51.262;5.488;2022-11-20T06:07:05;4.40;99.90
26537;DHT22;14204;51.262;5.488;2022-11-20T06:09:31;4.30;99.90
26537;DHT22;14204;51.262;5.488;2022-11-20T06:11:57;4.30;99.90
26537;DHT22;14204;51.262;5.488;2022-11-20T06:14:23;4.30;99.90
26537;DHT22;14204;51.262;5.488;2022-11-20T06:16:48;4.40;99.90
26537;DHT22;14204;51.262;5.488;2022-11-20T06:19:14;4.50;99.90
26537;DHT22;14204;51.262;5.488;2022-11-20T06:21:40;4.50;99.90
26537;DHT22;14204;51.262;5.488;2022-11-20T06:24:08;4.40;99.90
26537;DHT22;14204;51.262;5.488;2022-11-20T06:26:34;4.40;99.90
26537;DHT22;14204;51.262;5.488;2022-11-20T06:28:59;4.30;99.90
26537;DHT22;14204;51.262;5.488;2022-11-20T06:31:26;4.30;99.90
26537;DHT22;14204;51.262;5.488;2022-11-20T06:33:52;4.30;99.90
26537;DHT22;14204;51.262;5.488;2022-11-20T06:36:19;4.30;99.90
26537;DHT22;14204;51.262;5.488;2022-11-20T06:38:46;4.30;99.90
26537;DHT22;14204;51.262;5.488;2022-11-20T06:41:14;4.30;99.90
26537;DHT22;14204;51.262;5.488;2022-11-20T06:43:40;4.30;99.90
26537;DHT22;14204;51.262;5.488;2022-11-20T06:46:06;4.30;99.90
26537;DHT22;14204;51.262;5.488;2022-11-20T06:48:32;4.20;99.90
26537;DHT22;14204;51.262;5.488;2022-11-20T06:50:59;4.30;99.90
26537;DHT22;14204;51.262;5.488;2022-11-20T06:53:24;4.30;99.90
26537;DHT22;14204;51.262;5.488;2022-11-20T06:55:51;4.40;99.90
26537;DHT22;14204;51.262;5.488;2022-11-20T06:58:17;4.40;99.90
26537;DHT22;14204;51.262;5.488;2022-11-20T07:00:43;4.30;99.90
26537;DHT22;14204;51.262;5.488;2022-11-20T07:03:10;4.40;99.90
26537;DHT22;14204;51.262;5.488;2022-11-20T07:05:37;4.40;99.90
26537;DHT22;14204;51.262;5.488;2022-11-20T07:08:04;4.40;99.90
26537;DHT22;14204;51.262;5.488;2022-11-20T07:10:30;4.30;99.90
26537;DHT22;14204;51.262;5.488;2022-11-20T07:12:56;4.10;99.90
26537;DHT22;14204;51.262;5.488;2022-11-20T07:15:24;4.20;99.90
26537;DHT22;14204;51.262;5.488;2022-11-20T07:17:50;4.30;99.90
26537;DHT22;14204;51.262;5.488;2022-11-20T07:20:16;4.20;99.90
26537;DHT22;14204;51.262;5.488;2022-11-20T07:22:42;4.20;99.90
26537;DHT22;14204;51.262;5.488;2022-11-20T07:25:09;4.20;99.90
26537;DHT22;14204;51.262;5.488;2022-11-20T07:27:35;4.30;99.90
26537;DHT22;14204;51.262;5.488;2022-11-20T07:30:01;4.20;99.90
26537;DHT22;14204;51.262;5.488;2022-11-20T07:32:27;4.30;99.90
26537;DHT22;14204;51.262;5.488;2022-11-20T07:34:52;4.30;99.90
26537;DHT22;14204;51.262;5.488;2022-11-20T07:37:18;4.30;99.90
26537;DHT22;14204;51.262;5.488;2022-11-20T07:39:44;4.30;99.90
26537;DHT22;14204;51.262;5.488;2022-11-20T07:42:10;4.30;99.90
26537;DHT22;14204;51.262;5.488;2022-11-20T07:44:37;4.40;99.90
26537;DHT22;14204;51.262;5.488;2022-11-20T07:47:03;4.40;99.90
26537;DHT22;14204;51.262;5.488;2022-11-20T07:49:29;4.50;99.90
26537;DHT22;14204;51.262;5.488;2022-11-20T07:51:54;4.50;99.90
26537;DHT22;14204;51.262;5.488;2022-11-20T07:54:20;4.50;99.90
26537;DHT22;14204;51.262;5.488;2022-11-20T07:56:47;4.50;99.90
26537;DHT22;14204;51.262;5.488;2022-11-20T07:59:13;4.40;99.90
26537;DHT22;14204;51.262;5.488;2022-11-20T08:01:39;4.50;99.90
26537;DHT22;14204;51.262;5.488;2022-11-20T08:04:05;4.50;99.90
26537;DHT22;14204;51.262;5.488;2022-11-20T08:06:31;4.40;99.90
26537;DHT22;14204;51.262;5.488;2022-11-20T08:08:56;4.50;99.90
26537;DHT22;14204;51.262;5.488;2022-11-20T08:11:22;4.40;99.90
26537;DHT22;14204;51.262;5.488;2022-11-20T08:14:14;4.40;99.90
26537;DHT22;14204;51.262;5.488;2022-11-20T08:16:47;4.60;99.90
26537;DHT22;14204;51.262;5.488;2022-11-20T08:19:15;4.60;99.90
26537;DHT22;14204;51.262;5.488;2022-11-20T08:21:41;4.70;99.90
26537;DHT22;14204;51.262;5.488;2022-11-20T08:24:07;4.70;99.90
26537;DHT22;14204;51.262;5.488;2022-11-20T08:26:33;4.60;99.90
26537;DHT22;14204;51.262;5.488;2022-11-20T08:28:59;4.70;99.90
26537;DHT22;14204;51.262;5.488;2022-11-20T08:31:26;4.70;99.90
26537;DHT22;14204;51.262;5.488;2022-11-20T08:33:52;4.80;99.90
26537;DHT22;14204;51.262;5.488;2022-11-20T08:36:18;4.80;99.90
26537;DHT22;14204;51.262;5.488;2022-11-20T08:38:49;4.90;99.90
26537;DHT22;14204;51.262;5.488;2022-11-20T08:41:14;4.90;99.90
26537;DHT22;14204;51.262;5.488;2022-11-20T08:44:09;4.90;99.90
26537;DHT22;14204;51.262;5.488;2022-11-20T08:46:40;4.80;99.90
26537;DHT22;14204;51.262;5.488;2022-11-20T08:49:11;4.70;99.90
26537;DHT22;14204;51.262;5.488;2022-11-20T08:51:38;4.90;99.90
26537;DHT22;14204;51.262;5.488;2022-11-20T08:54:04;4.90;99.90
26537;DHT22;14204;51.262;5.488;2022-11-20T08:56:31;4.90;99.90
26537;DHT22;14204;51.262;5.488;2022-11-20T08:58:57;5.00;99.90
26537;DHT22;14204;51.262;5.488;2022-11-20T09:01:25;5.10;99.90
26537;DHT22;14204;51.262;5.488;2022-11-20T09:03:51;5.00;99.90
26537;DHT22;14204;51.262;5.488;2022-11-20T09:06:17;5.00;99.90
26537;DHT22;14204;51.262;5.488;2022-11-20T09:08:43;5.00;99.90
26537;DHT22;14204;51.262;5.488;2022-11-20T09:11:09;5.10;99.90
26537;DHT22;14204;51.262;5.488;2022-11-20T09:13:36;5.10;99.90
26537;DHT22;14204;51.262;5.488;2022-11-20T09:16:04;5.00;99.90
26537;DHT22;14204;51.262;5.488;2022-11-20T09:18:31;5.10;99.90
26537;DHT22;14204;51.262;5.488;2022-11-20T09:21:02;5.20;99.90
26537;DHT22;14204;51.262;5.488;2022-11-20T09:23:31;5.30;99.90
26537;DHT22;14204;51.262;5.488;2022-11-20T09:25:58;5.40;99.90
26537;DHT22;14204;51.262;5.488;2022-11-20T09:28:25;5.40;99.90
26537;DHT22;14204;51.262;5.488;2022-11-20T09:30:51;5.40;99.90
26537;DHT22;14204;51.262;5.488;2022-11-20T09:33:17;5.50;99.90
26537;DHT22;14204;51.262;5.488;2022-11-20T09:35:43;5.40;99.90
26537;DHT22;14204;51.262;5.488;2022-11-20T09:38:09;5.40;99.90
26537;DHT22;14204;51.262;5.488;2022-11-20T09:40:39;5.40;99.90
26537;DHT22;14204;51.262;5.488;2022-11-20T09:48:40;5.60;99.90
26537;DHT22;14204;51.262;5.488;2022-11-20T09:51:25;5.70;99.90
26537;DHT22;14204;51.262;5.488;2022-11-20T09:56:20;5.60;99.90
26537;DHT22;14204;51.262;5.488;2022-11-20T09:58:50;5.70;99.90
26537;DHT22;14204;51.262;5.488;2022-11-20T10:01:21;5.70;99.90
26537;DHT22;14204;51.262;5.488;2022-11-20T10:06:18;5.80;99.90
26537;DHT22;14204;51.262;5.488;2022-11-20T10:09:25;5.90;99.90
26537;DHT22;14204;51.262;5.488;2022-11-20T10:14:48;5.90;99.90
26537;DHT22;14204;51.262;5.488;2022-11-20T10:25:20;5.80;99.90
26537;DHT22;14204;51.262;5.488;2022-11-20T10:30:20;6.00;99.90
26537;DHT22;14204;51.262;5.488;2022-11-20T10:32:53;5.90;99.90
26537;DHT22;14204;51.262;5.488;2022-11-20T10:35:44;6.00;99.90
26537;DHT22;14204;51.262;5.488;2022-11-20T10:38:38;6.00;99.90
26537;DHT22;14204;51.262;5.488;2022-11-20T10:41:06;6.00;99.90
26537;DHT22;14204;51.262;5.488;2022-11-20T10:44:02;5.90;99.90
26537;DHT22;14204;51.262;5.488;2022-11-20T10:46:43;6.00;99.90
26537;DHT22;14204;51.262;5.488;2022-11-20T10:49:17;6.10;99.90
26537;DHT22;14204;51.262;5.488;2022-11-20T10:59:55;6.30;99.90
26537;DHT22;14204;51.262;5.488;2022-11-20T11:02:35;6.30;99.90
26537;DHT22;14204;51.262;5.488;2022-11-20T11:05:22;6.30;99.90
26537;DHT22;14204;51.262;5.488;2022-11-20T11:07:50;6.30;99.90
26537;DHT22;14204;51.262;5.488;2022-11-20T11:10:23;6.30;99.90
26537;DHT22;14204;51.262;5.488;2022-11-20T11:12:49;6.20;99.90
26537;DHT22;14204;51.262;5.488;2022-11-20T11:15:27;6.20;99.90
26537;DHT22;14204;51.262;5.488;2022-11-20T11:17:54;6.20;99.90
26537;DHT22;14204;51.262;5.488;2022-11-20T11:20:22;6.20;99.90
26537;DHT22;14204;51.262;5.488;2022-11-20T11:22:53;6.30;99.90
26537;DHT22;14204;51.262;5.488;2022-11-20T11:27:47;6.40;99.90
26537;DHT22;14204;51.262;5.488;2022-11-20T11:30:18;6.40;99.90
26537;DHT22;14204;51.262;5.488;2022-11-20T11:32:44;6.40;99.90
26537;DHT22;14204;51.262;5.488;2022-11-20T11:35:25;6.50;99.90
26537;DHT22;14204;51.262;5.488;2022-11-20T11:37:54;6.50;99.90
26537;DHT22;14204;51.262;5.488;2022-11-20T11:40:27;6.50;99.90
26537;DHT22;14204;51.262;5.488;2022-11-20T11:43:01;6.60;99.90
26537;DHT22;14204;51.262;5.488;2022-11-20T11:45:27;6.60;99.90
26537;DHT22;14204;51.262;5.488;2022-11-20T11:47:55;6.60;99.90
26537;DHT22;14204;51.262;5.488;2022-11-20T11:50:23;6.50;99.90
26537;DHT22;14204;51.262;5.488;2022-11-20T11:55:40;6.40;99.90
26537;DHT22;14204;51.262;5.488;2022-11-20T12:01:12;6.60;99.90
26537;DHT22;14204;51.262;5.488;2022-11-20T12:03:37;6.60;99.90
26537;DHT22;14204;51.262;5.488;2022-11-20T12:06:16;6.60;99.90
26537;DHT22;14204;51.262;5.488;2022-11-20T12:08:53;6.70;99.90
26537;DHT22;14204;51.262;5.488;2022-11-20T12:14:15;6.80;99.90
26537;DHT22;14204;51.262;5.488;2022-11-20T12:16:44;6.80;99.90
26537;DHT22;14204;51.262;5.488;2022-11-20T12:19:12;6.80;99.90
26537;DHT22;14204;51.262;5.488;2022-11-20T12:22:13;6.80;99.90
26537;DHT22;14204;51.262;5.488;2022-11-20T12:25:02;6.90;99.90
26537;DHT22;14204;51.262;5.488;2022-11-20T12:30:15;7.00;99.90
26537;DHT22;14204;51.262;5.488;2022-11-20T12:41:27;7.20;99.90
26537;DHT22;14204;51.262;5.488;2022-11-20T12:50:09;7.40;99.90
26537;DHT22;14204;51.262;5.488;2022-11-20T12:55:13;7.30;99.90
26537;DHT22;14204;51.262;5.488;2022-11-20T12:57:57;7.40;99.90
26537;DHT22;14204;51.262;5.488;2022-11-20T13:00:24;7.50;99.90
26537;DHT22;14204;51.262;5.488;2022-11-20T13:05:30;7.60;99.90
26537;DHT22;14204;51.262;5.488;2022-11-20T13:07:58;7.60;99.90
26537;DHT22;14204;51.262;5.488;2022-11-20T13:10:41;7.60;99.90
26537;DHT22;14204;51.262;5.488;2022-11-20T13:13:28;7.70;99.90
26537;DHT22;14204;51.262;5.488;2022-11-20T13:16:10;7.60;99.90
26537;DHT22;14204;51.262;5.488;2022-11-20T13:18:39;7.60;99.90
26537;DHT22;14204;51.262;5.488;2022-11-20T13:21:37;7.60;99.90
26537;DHT22;14204;51.262;5.488;2022-11-20T13:26:46;7.60;99.90
26537;DHT22;14204;51.262;5.488;2022-11-20T13:29:18;7.60;99.90
26537;DHT22;14204;51.262;5.488;2022-11-20T13:31:45;7.60;99.90
26537;DHT22;14204;51.262;5.488;2022-11-20T13:34:22;7.80;99.90
26537;DHT22;14204;51.262;5.488;2022-11-20T13:36:50;7.80;99.90
26537;DHT22;14204;51.262;5.488;2022-11-20T13:39:36;7.80;99.90
26537;DHT22;14204;51.262;5.488;2022-11-20T13:44:44;7.80;99.90
26537;DHT22;14204;51.262;5.488;2022-11-20T13:47:28;7.90;99.90
26537;DHT22;14204;51.262;5.488;2022-11-20T13:49:58;7.90;99.90
26537;DHT22;14204;51.262;5.488;2022-11-20T13:52:49;7.90;99.90
26537;DHT22;14204;51.262;5.488;2022-11-20T13:55:54;7.90;99.90
26537;DHT22;14204;51.262;5.488;2022-11-20T14:01:14;7.90;99.90
26537;DHT22;14204;51.262;5.488;2022-11-20T14:03:40;7.90;99.90
26537;DHT22;14204;51.262;5.488;2022-11-20T14:06:14;7.90;99.90
26537;DHT22;14204;51.262;5.488;2022-11-20T14:08:50;8.00;99.90
26537;DHT22;14204;51.262;5.488;2022-11-20T14:11:21;7.90;99.90
26537;DHT22;14204;51.262;5.488;2022-11-20T14:16:32;7.90;99.90
26537;DHT22;14204;51.262;5.488;2022-11-20T14:21:53;7.90;99.90
26537;DHT22;14204;51.262;5.488;2022-11-20T14:24:21;7.90;99.90
26537;DHT22;14204;51.262;5.488;2022-11-20T14:26:47;7.80;99.90
26537;DHT22;14204;51.262;5.488;2022-11-20T14:29:26;7.80;99.90
26537;DHT22;14204;51.262;5.488;2022-11-20T14:31:53;7.80;99.90
26537;DHT22;14204;51.262;5.488;2022-11-20T14:34:25;7.80;99.90
26537;DHT22;14204;51.262;5.488;2022-11-20T14:36:56;7.90;99.90
26537;DHT22;14204;51.262;5.488;2022-11-20T14:39:30;7.80;99.90
26537;DHT22;14204;51.262;5.488;2022-11-20T14:41:57;7.80;99.90
26537;DHT22;14204;51.262;5.488;2022-11-20T14:44:33;7.80;99.90
26537;DHT22;14204;51.262;5.488;2022-11-20T14:47:00;7.80;99.90
26537;DHT22;14204;51.262;5.488;2022-11-20T14:49:29;7.80;99.90
26537;DHT22;14204;51.262;5.488;2022-11-20T14:51:59;7.90;99.90
26537;DHT22;14204;51.262;5.488;2022-11-20T14:54:25;8.00;99.90
26537;DHT22;14204;51.262;5.488;2022-11-20T14:56:56;8.00;99.90
26537;DHT22;14204;51.262;5.488;2022-11-20T14:59:30;8.00;99.90
26537;DHT22;14204;51.262;5.488;2022-11-20T15:02:02;8.00;99.90
26537;DHT22;14204;51.262;5.488;2022-11-20T15:04:29;8.00;99.90
26537;DHT22;14204;51.262;5.488;2022-11-20T15:06:56;8.10;99.90
26537;DHT22;14204;51.262;5.488;2022-11-20T15:09:23;8.10;99.90
26537;DHT22;14204;51.262;5.488;2022-11-20T15:12:01;8.00;99.90
26537;DHT22;14204;51.262;5.488;2022-11-20T15:14:28;8.10;99.90
26537;DHT22;14204;51.262;5.488;2022-11-20T15:16:56;8.10;99.90
26537;DHT22;14204;51.262;5.488;2022-11-20T15:19:23;8.10;99.90
26537;DHT22;14204;51.262;5.488;2022-11-20T15:21:50;8.10;99.90
26537;DHT22;14204;51.262;5.488;2022-11-20T15:24:16;8.20;99.90
26537;DHT22;14204;51.262;5.488;2022-11-20T15:26:42;8.10;99.90
26537;DHT22;14204;51.262;5.488;2022-11-20T15:29:12;8.20;99.90
26537;DHT22;14204;51.262;5.488;2022-11-20T15:31:38;8.10;99.90
26537;DHT22;14204;51.262;5.488;2022-11-20T15:34:12;8.10;99.90
26537;DHT22;14204;51.262;5.488;2022-11-20T15:36:39;8.20;99.90
26537;DHT22;14204;51.262;5.488;2022-11-20T15:39:05;8.20;99.90
26537;DHT22;14204;51.262;5.488;2022-11-20T15:41:33;8.20;99.90
26537;DHT22;14204;51.262;5.488;2022-11-20T15:43:59;8.20;99.90
26537;DHT22;14204;51.262;5.488;2022-11-20T15:46:30;8.30;99.90
26537;DHT22;14204;51.262;5.488;2022-11-20T15:48:59;8.20;99.90
26537;DHT22;14204;51.262;5.488;2022-11-20T15:51:31;8.20;99.90
26537;DHT22;14204;51.262;5.488;2022-11-20T15:53:58;8.30;99.90
26537;DHT22;14204;51.262;5.488;2022-11-20T15:56:25;8.30;99.90
26537;DHT22;14204;51.262;5.488;2022-11-20T15:58:51;8.40;99.90
26537;DHT22;14204;51.262;5.488;2022-11-20T16:01:19;8.40;99.90
26537;DHT22;14204;51.262;5.488;2022-11-20T16:03:46;8.40;99.90
26537;DHT22;14204;51.262;5.488;2022-11-20T16:06:11;8.40;99.90
26537;DHT22;14204;51.262;5.488;2022-11-20T16:08:37;8.40;99.90
26537;DHT22;14204;51.262;5.488;2022-11-20T16:11:03;8.40;99.90
26537;DHT22;14204;51.262;5.488;2022-11-20T16:13:31;8.30;99.90
26537;DHT22;14204;51.262;5.488;2022-11-20T16:16:20;8.40;99.90
26537;DHT22;14204;51.262;5.488;2022-11-20T16:18:46;8.40;99.90
26537;DHT22;14204;51.262;5.488;2022-11-20T16:21:12;8.50;99.90
26537;DHT22;14204;51.262;5.488;2022-11-20T16:23:41;8.50;99.90
26537;DHT22;14204;51.262;5.488;2022-11-20T16:26:26;8.50;99.90
26537;DHT22;14204;51.262;5.488;2022-11-20T16:28:52;8.60;99.90
26537;DHT22;14204;51.262;5.488;2022-11-20T16:31:19;8.60;99.90
26537;DHT22;14204;51.262;5.488;2022-11-20T16:33:52;8.60;99.90
26537;DHT22;14204;51.262;5.488;2022-11-20T16:36:19;8.60;99.90
26537;DHT22;14204;51.262;5.488;2022-11-20T16:38:45;8.50;99.90
26537;DHT22;14204;51.262;5.488;2022-11-20T16:41:10;8.60;99.90
26537;DHT22;14204;51.262;5.488;2022-11-20T16:43:59;8.60;99.90
26537;DHT22;14204;51.262;5.488;2022-11-20T16:46:27;8.60;99.90
26537;DHT22;14204;51.262;5.488;2022-11-20T16:48:54;8.60;99.90
26537;DHT22;14204;51.262;5.488;2022-11-20T16:51:20;8.70;99.90
26537;DHT22;14204;51.262;5.488;2022-11-20T16:53:46;8.70;99.90
26537;DHT22;14204;51.262;5.488;2022-11-20T16:56:14;8.80;99.90
26537;DHT22;14204;51.262;5.488;2022-11-20T16:58:42;8.80;99.90
26537;DHT22;14204;51.262;5.488;2022-11-20T17:01:09;8.80;99.90
26537;DHT22;14204;51.262;5.488;2022-11-20T17:03:42;8.80;99.90
26537;DHT22;14204;51.262;5.488;2022-11-20T17:06:19;8.80;99.90
26537;DHT22;14204;51.262;5.488;2022-11-20T17:08:46;8.80;99.90
26537;DHT22;14204;51.262;5.488;2022-11-20T17:11:17;8.80;99.90
26537;DHT22;14204;51.262;5.488;2022-11-20T17:13:44;8.80;99.90
26537;DHT22;14204;51.262;5.488;2022-11-20T17:16:12;8.80;99.90
26537;DHT22;14204;51.262;5.488;2022-11-20T17:18:38;8.80;99.90